EDXW Airport Information

Runway Information
Runway 06 Length 5564 ft width 148 ft
Elevation 27 ft Threshold 0 ft Heading 60
Runway 24 Length 5564 ft Width 148 ft
Elevation 51 ft Threshold 0 ft Heading 240
Runway 14 Length 6955 ft width 148 ft
Elevation 32 ft Threshold 0 ft Heading 144
Runway 32 Length 6955 ft Width 148 ft
Elevation 31 ft Threshold 0 ft Heading 324
Airport Frequencies
Type INFO Name BREMEN INF Frequency 125.1 MHZ
Type RDR Name BREMEN RAD Frequency 136.225 MHZ
Type TWR Name SYLT TWR Frequency 119.75 MHZ
Airport Navaids
Type NDB Name Sylt Frequency 387 KHZ
Type DME Name Westerland Frequency 111500 KHZ
Airport Weather Information & NOTAM
ADDS - METARS form results

(0909 UTC 27 September 2021)
Data provider http://aviationweather.gov/metar/data/
 
METAR text: EDXW 270850Z 18009KT 0300 R14/0375N FG VV/// 17/16 Q1012
Conditions at: EDXW (WESTERLAND/SYLT , DE) observed 0850 UTC 27 September 2021
Temperature: 17.0°C (63°F)
Dewpoint: 16.0°C (61°F) [RH = 94%]
Pressure (altimeter): 29.88 inches Hg (1012.0 mb)
Winds: from the S (180 degrees) at 10 MPH (9 knots; 4.6 m/s)
Visibility: 0.19 miles (0.31 km)
Ceiling: indefinite ceiling with vertical visibility of 0 feet AGL
Clouds: obscured sky
Weather: FG  (fog)

METAR text: EDXW 270820Z 17009KT 0400 R14/0500D FG VV/// 17/17 Q1012
Conditions at: EDXW (WESTERLAND/SYLT , DE) observed 0820 UTC 27 September 2021
Temperature: 17.0°C (63°F)
Dewpoint: 17.0°C (63°F) [RH = 100%]
Pressure (altimeter): 29.88 inches Hg (1012.0 mb)
Winds: from the S (170 degrees) at 10 MPH (9 knots; 4.6 m/s)
Visibility: 0.25 miles (0.40 km)
Ceiling: indefinite ceiling with vertical visibility of 0 feet AGL
Clouds: obscured sky
Weather: FG  (fog)

Forecast for: COR
Text: TAF COR EDXW 270827Z 2709/2718 15007KT 0200 FG BKN001
Forecast period: 0900 to 1800 UTC 27 September 2021
Forecast type: FROM: standard forecast or significant change
Winds: from the SSE (150 degrees) at 8 MPH (7 knots; 3.6 m/s)
Visibility: 0.12 miles (0.19 km)
Ceiling: 100 feet AGL
Clouds: broken clouds at 100 feet AGL
Weather: FG  (fog)
Text: BECMG 2709/2711 16012KT 8000 FEW020
Forecast period: 0900 to 1800 UTC 27 September 2021
Forecast type: BECOMING: Conditions expected to become as follows by 1100 UTC 27 September 2021
Winds: from the SSE (160 degrees) at 14 MPH (12 knots; 6.2 m/s)
Visibility: 5 miles (8 km)
Ceiling: at least 12,000 feet AGL
Clouds: few clouds at 2000 feet AGL
Weather: FG  (fog)
Text: TEMPO 2717/2718 4000 -SHRA BKN012CB
Forecast period: 1700 to 1800 UTC 27 September 2021
Forecast type: TEMPORARY: The following changes expected for less than half the time period
Visibility: 2.49 miles (4.01 km)
Ceiling: 1200 feet AGL
Clouds: broken clouds at 1200 feet AGL
Weather: -SHRA  (light rain showers)